sensor_id;sensor_type;location;lat;lon;timestamp;P1;durP1;ratioP1;P2;durP2;ratioP2
79438;SDS011;68889;48.232;10.110;2024-02-21T00:01:13;7.93;;;4.28;;
79438;SDS011;68889;48.232;10.110;2024-02-21T00:03:41;8.80;;;4.53;;
79438;SDS011;68889;48.232;10.110;2024-02-21T00:06:07;8.63;;;4.50;;
79438;SDS011;68889;48.232;10.110;2024-02-21T00:08:33;7.20;;;3.97;;
79438;SDS011;68889;48.232;10.110;2024-02-21T00:10:59;10.52;;;3.70;;
79438;SDS011;68889;48.232;10.110;2024-02-21T00:13:25;8.48;;;4.53;;
79438;SDS011;68889;48.232;10.110;2024-02-21T00:15:50;9.18;;;4.80;;
79438;SDS011;68889;48.232;10.110;2024-02-21T00:18:16;7.03;;;3.58;;
79438;SDS011;68889;48.232;10.110;2024-02-21T00:20:42;6.28;;;3.28;;
79438;SDS011;68889;48.232;10.110;2024-02-21T00:23:08;5.38;;;2.75;;
79438;SDS011;68889;48.232;10.110;2024-02-21T00:27:59;7.55;;;2.50;;
79438;SDS011;68889;48.232;10.110;2024-02-21T00:30:27;7.10;;;3.40;;
79438;SDS011;68889;48.232;10.110;2024-02-21T00:32:54;5.90;;;3.60;;
79438;SDS011;68889;48.232;10.110;2024-02-21T00:35:20;6.05;;;3.10;;
79438;SDS011;68889;48.232;10.110;2024-02-21T00:37:45;9.27;;;3.75;;
79438;SDS011;68889;48.232;10.110;2024-02-21T00:40:11;6.63;;;4.03;;
79438;SDS011;68889;48.232;10.110;2024-02-21T00:42:36;8.32;;;3.42;;
79438;SDS011;68889;48.232;10.110;2024-02-21T00:45:04;6.93;;;3.67;;
79438;SDS011;68889;48.232;10.110;2024-02-21T00:47:33;6.15;;;3.30;;
79438;SDS011;68889;48.232;10.110;2024-02-21T00:52:27;8.15;;;3.65;;
79438;SDS011;68889;48.232;10.110;2024-02-21T00:54:53;7.82;;;3.75;;
79438;SDS011;68889;48.232;10.110;2024-02-21T00:57:18;6.05;;;3.60;;
79438;SDS011;68889;48.232;10.110;2024-02-21T00:59:44;10.32;;;3.88;;
79438;SDS011;68889;48.232;10.110;2024-02-21T01:02:09;5.47;;;3.40;;
79438;SDS011;68889;48.232;10.110;2024-02-21T01:04:36;7.32;;;3.95;;
79438;SDS011;68889;48.232;10.110;2024-02-21T01:07:09;5.93;;;3.40;;
79438;SDS011;68889;48.232;10.110;2024-02-21T01:09:35;9.05;;;3.53;;
79438;SDS011;68889;48.232;10.110;2024-02-21T01:12:00;7.93;;;4.07;;
79438;SDS011;68889;48.232;10.110;2024-02-21T01:14:26;6.93;;;3.58;;
79438;SDS011;68889;48.232;10.110;2024-02-21T01:16:51;4.97;;;3.80;;
79438;SDS011;68889;48.232;10.110;2024-02-21T01:19:17;7.88;;;3.22;;
79438;SDS011;68889;48.232;10.110;2024-02-21T01:21:42;6.18;;;3.60;;
79438;SDS011;68889;48.232;10.110;2024-02-21T01:24:10;4.65;;;2.78;;
79438;SDS011;68889;48.232;10.110;2024-02-21T01:29:01;6.75;;;3.60;;
79438;SDS011;68889;48.232;10.110;2024-02-21T01:31:26;8.35;;;4.07;;
79438;SDS011;68889;48.232;10.110;2024-02-21T01:33:52;6.85;;;3.17;;
79438;SDS011;68889;48.232;10.110;2024-02-21T01:36:19;7.45;;;2.90;;
79438;SDS011;68889;48.232;10.110;2024-02-21T01:38:45;6.53;;;3.40;;
79438;SDS011;68889;48.232;10.110;2024-02-21T01:41:10;6.38;;;3.72;;
79438;SDS011;68889;48.232;10.110;2024-02-21T01:43:36;7.82;;;3.50;;
79438;SDS011;68889;48.232;10.110;2024-02-21T01:46:02;7.22;;;3.50;;
79438;SDS011;68889;48.232;10.110;2024-02-21T01:48:27;4.80;;;3.47;;
79438;SDS011;68889;48.232;10.110;2024-02-21T01:50:54;5.65;;;3.50;;
79438;SDS011;68889;48.232;10.110;2024-02-21T01:53:22;5.22;;;3.53;;
79438;SDS011;68889;48.232;10.110;2024-02-21T01:55:50;8.68;;;4.25;;
79438;SDS011;68889;48.232;10.110;2024-02-21T01:58:15;7.80;;;3.38;;
79438;SDS011;68889;48.232;10.110;2024-02-21T02:00:42;9.88;;;3.72;;
79438;SDS011;68889;48.232;10.110;2024-02-21T02:03:12;6.60;;;3.47;;
79438;SDS011;68889;48.232;10.110;2024-02-21T02:05:42;7.38;;;3.60;;
79438;SDS011;68889;48.232;10.110;2024-02-21T02:08:15;6.20;;;3.88;;
79438;SDS011;68889;48.232;10.110;2024-02-21T02:10:41;6.65;;;3.60;;
79438;SDS011;68889;48.232;10.110;2024-02-21T02:13:08;4.00;;;2.80;;
79438;SDS011;68889;48.232;10.110;2024-02-21T02:15:44;6.65;;;3.40;;
79438;SDS011;68889;48.232;10.110;2024-02-21T02:18:11;8.48;;;3.58;;
79438;SDS011;68889;48.232;10.110;2024-02-21T02:20:38;7.13;;;3.90;;
79438;SDS011;68889;48.232;10.110;2024-02-21T02:23:09;7.75;;;4.25;;
79438;SDS011;68889;48.232;10.110;2024-02-21T02:25:36;6.93;;;3.33;;
79438;SDS011;68889;48.232;10.110;2024-02-21T02:28:06;7.63;;;4.03;;
79438;SDS011;68889;48.232;10.110;2024-02-21T02:30:33;6.97;;;3.10;;
79438;SDS011;68889;48.232;10.110;2024-02-21T02:33:04;6.22;;;3.58;;
79438;SDS011;68889;48.232;10.110;2024-02-21T02:35:31;5.97;;;3.45;;
79438;SDS011;68889;48.232;10.110;2024-02-21T02:37:57;6.30;;;3.42;;
79438;SDS011;68889;48.232;10.110;2024-02-21T02:40:23;5.28;;;2.65;;
79438;SDS011;68889;48.232;10.110;2024-02-21T02:42:50;6.22;;;3.40;;
79438;SDS011;68889;48.232;10.110;2024-02-21T02:45:16;5.65;;;3.50;;
79438;SDS011;68889;48.232;10.110;2024-02-21T02:47:46;5.57;;;3.38;;
79438;SDS011;68889;48.232;10.110;2024-02-21T02:50:12;9.80;;;3.45;;
79438;SDS011;68889;48.232;10.110;2024-02-21T02:52:38;5.88;;;3.70;;
79438;SDS011;68889;48.232;10.110;2024-02-21T02:55:04;7.40;;;3.78;;
79438;SDS011;68889;48.232;10.110;2024-02-21T02:57:30;7.95;;;3.95;;
79438;SDS011;68889;48.232;10.110;2024-02-21T02:59:56;10.63;;;3.55;;
79438;SDS011;68889;48.232;10.110;2024-02-21T03:02:22;8.43;;;3.00;;
79438;SDS011;68889;48.232;10.110;2024-02-21T03:04:48;6.05;;;3.65;;
79438;SDS011;68889;48.232;10.110;2024-02-21T03:07:14;7.20;;;3.50;;
79438;SDS011;68889;48.232;10.110;2024-02-21T03:09:40;7.80;;;3.40;;
79438;SDS011;68889;48.232;10.110;2024-02-21T03:12:10;9.00;;;3.67;;
79438;SDS011;68889;48.232;10.110;2024-02-21T03:14:36;5.38;;;3.50;;
79438;SDS011;68889;48.232;10.110;2024-02-21T03:17:02;6.75;;;3.88;;
79438;SDS011;68889;48.232;10.110;2024-02-21T03:19:28;8.27;;;3.40;;
79438;SDS011;68889;48.232;10.110;2024-02-21T03:21:54;7.05;;;3.22;;
79438;SDS011;68889;48.232;10.110;2024-02-21T03:24:20;6.20;;;3.70;;
79438;SDS011;68889;48.232;10.110;2024-02-21T03:26:46;5.75;;;3.58;;
79438;SDS011;68889;48.232;10.110;2024-02-21T03:29:14;6.82;;;4.25;;
79438;SDS011;68889;48.232;10.110;2024-02-21T03:31:40;7.70;;;3.75;;
79438;SDS011;68889;48.232;10.110;2024-02-21T03:34:07;5.20;;;3.63;;
79438;SDS011;68889;48.232;10.110;2024-02-21T03:36:33;7.18;;;3.60;;
79438;SDS011;68889;48.232;10.110;2024-02-21T03:38:59;7.80;;;3.40;;
79438;SDS011;68889;48.232;10.110;2024-02-21T03:41:24;6.47;;;3.30;;
79438;SDS011;68889;48.232;10.110;2024-02-21T03:43:50;5.88;;;3.80;;
79438;SDS011;68889;48.232;10.110;2024-02-21T03:46:16;6.72;;;3.85;;
79438;SDS011;68889;48.232;10.110;2024-02-21T03:48:42;6.57;;;3.50;;
79438;SDS011;68889;48.232;10.110;2024-02-21T03:51:07;5.80;;;3.45;;
79438;SDS011;68889;48.232;10.110;2024-02-21T03:53:34;4.97;;;3.25;;
79438;SDS011;68889;48.232;10.110;2024-02-21T03:58:28;4.60;;;2.47;;
79438;SDS011;68889;48.232;10.110;2024-02-21T04:00:55;3.22;;;2.45;;
79438;SDS011;68889;48.232;10.110;2024-02-21T04:03:21;5.55;;;3.15;;
79438;SDS011;68889;48.232;10.110;2024-02-21T04:05:47;5.28;;;2.95;;
79438;SDS011;68889;48.232;10.110;2024-02-21T04:08:14;4.38;;;2.95;;
79438;SDS011;68889;48.232;10.110;2024-02-21T04:10:40;6.30;;;3.67;;
79438;SDS011;68889;48.232;10.110;2024-02-21T04:13:08;4.65;;;2.90;;
79438;SDS011;68889;48.232;10.110;2024-02-21T04:15:35;5.85;;;3.40;;
79438;SDS011;68889;48.232;10.110;2024-02-21T04:20:28;4.40;;;2.60;;
79438;SDS011;68889;48.232;10.110;2024-02-21T04:22:55;6.97;;;3.08;;
79438;SDS011;68889;48.232;10.110;2024-02-21T04:25:21;5.63;;;2.72;;
79438;SDS011;68889;48.232;10.110;2024-02-21T04:27:47;3.80;;;2.40;;
79438;SDS011;68889;48.232;10.110;2024-02-21T04:30:13;6.10;;;2.75;;
79438;SDS011;68889;48.232;10.110;2024-02-21T04:32:38;4.55;;;2.60;;
79438;SDS011;68889;48.232;10.110;2024-02-21T04:35:06;3.70;;;2.38;;
79438;SDS011;68889;48.232;10.110;2024-02-21T04:37:32;5.20;;;2.30;;
79438;SDS011;68889;48.232;10.110;2024-02-21T04:39:57;3.97;;;2.53;;
79438;SDS011;68889;48.232;10.110;2024-02-21T04:42:23;3.65;;;2.35;;
79438;SDS011;68889;48.232;10.110;2024-02-21T04:44:49;3.33;;;2.20;;
79438;SDS011;68889;48.232;10.110;2024-02-21T04:47:14;3.40;;;2.17;;
79438;SDS011;68889;48.232;10.110;2024-02-21T04:49:40;3.65;;;2.13;;
79438;SDS011;68889;48.232;10.110;2024-02-21T04:52:05;3.20;;;1.83;;
79438;SDS011;68889;48.232;10.110;2024-02-21T04:54:32;3.63;;;2.17;;
79438;SDS011;68889;48.232;10.110;2024-02-21T04:57:00;4.55;;;2.45;;
79438;SDS011;68889;48.232;10.110;2024-02-21T04:59:25;4.53;;;2.03;;
79438;SDS011;68889;48.232;10.110;2024-02-21T05:01:51;4.45;;;2.60;;
79438;SDS011;68889;48.232;10.110;2024-02-21T05:04:17;4.65;;;2.40;;
79438;SDS011;68889;48.232;10.110;2024-02-21T05:06:43;4.63;;;2.22;;
79438;SDS011;68889;48.232;10.110;2024-02-21T05:09:09;4.45;;;2.50;;
79438;SDS011;68889;48.232;10.110;2024-02-21T05:11:37;3.33;;;2.10;;
79438;SDS011;68889;48.232;10.110;2024-02-21T05:14:04;5.07;;;2.10;;
79438;SDS011;68889;48.232;10.110;2024-02-21T05:16:30;3.17;;;1.73;;
79438;SDS011;68889;48.232;10.110;2024-02-21T05:18:56;3.40;;;1.70;;
79438;SDS011;68889;48.232;10.110;2024-02-21T05:21:22;2.58;;;1.75;;
79438;SDS011;68889;48.232;10.110;2024-02-21T05:26:21;2.22;;;1.60;;
79438;SDS011;68889;48.232;10.110;2024-02-21T05:28:47;2.90;;;1.58;;
79438;SDS011;68889;48.232;10.110;2024-02-21T05:31:17;2.53;;;1.70;;
79438;SDS011;68889;48.232;10.110;2024-02-21T05:33:43;3.40;;;2.08;;
79438;SDS011;68889;48.232;10.110;2024-02-21T05:36:12;3.05;;;1.70;;
79438;SDS011;68889;48.232;10.110;2024-02-21T05:38:38;3.30;;;1.58;;
79438;SDS011;68889;48.232;10.110;2024-02-21T05:41:04;4.20;;;1.80;;
79438;SDS011;68889;48.232;10.110;2024-02-21T05:43:30;4.45;;;2.10;;
79438;SDS011;68889;48.232;10.110;2024-02-21T05:45:56;2.55;;;1.65;;
79438;SDS011;68889;48.232;10.110;2024-02-21T05:48:22;3.92;;;2.05;;
79438;SDS011;68889;48.232;10.110;2024-02-21T05:50:48;4.53;;;2.67;;
79438;SDS011;68889;48.232;10.110;2024-02-21T05:53:14;3.10;;;1.65;;
79438;SDS011;68889;48.232;10.110;2024-02-21T05:55:40;3.55;;;2.25;;
79438;SDS011;68889;48.232;10.110;2024-02-21T05:58:05;4.55;;;1.85;;
79438;SDS011;68889;48.232;10.110;2024-02-21T06:00:34;6.43;;;2.15;;
79438;SDS011;68889;48.232;10.110;2024-02-21T06:03:01;3.55;;;1.92;;
79438;SDS011;68889;48.232;10.110;2024-02-21T06:05:27;3.38;;;2.10;;
79438;SDS011;68889;48.232;10.110;2024-02-21T06:07:53;4.07;;;2.15;;
79438;SDS011;68889;48.232;10.110;2024-02-21T06:10:18;2.85;;;1.77;;
79438;SDS011;68889;48.232;10.110;2024-02-21T06:12:44;4.10;;;2.00;;
79438;SDS011;68889;48.232;10.110;2024-02-21T06:15:10;3.15;;;2.08;;
79438;SDS011;68889;48.232;10.110;2024-02-21T06:17:35;3.53;;;1.90;;
79438;SDS011;68889;48.232;10.110;2024-02-21T06:20:01;3.75;;;1.70;;
79438;SDS011;68889;48.232;10.110;2024-02-21T06:22:26;3.83;;;2.00;;
79438;SDS011;68889;48.232;10.110;2024-02-21T06:24:52;4.90;;;2.25;;
79438;SDS011;68889;48.232;10.110;2024-02-21T06:27:19;3.35;;;1.77;;
79438;SDS011;68889;48.232;10.110;2024-02-21T06:29:45;4.32;;;2.00;;
79438;SDS011;68889;48.232;10.110;2024-02-21T06:32:11;4.72;;;2.10;;
79438;SDS011;68889;48.232;10.110;2024-02-21T06:34:38;4.18;;;2.00;;
79438;SDS011;68889;48.232;10.110;2024-02-21T06:39:30;2.95;;;1.80;;
79438;SDS011;68889;48.232;10.110;2024-02-21T06:41:56;4.65;;;2.30;;
79438;SDS011;68889;48.232;10.110;2024-02-21T06:44:21;4.10;;;1.98;;
79438;SDS011;68889;48.232;10.110;2024-02-21T06:46:47;5.25;;;1.90;;
79438;SDS011;68889;48.232;10.110;2024-02-21T06:49:13;3.35;;;2.00;;
79438;SDS011;68889;48.232;10.110;2024-02-21T06:51:44;3.08;;;1.70;;
79438;SDS011;68889;48.232;10.110;2024-02-21T06:54:10;3.53;;;1.98;;
79438;SDS011;68889;48.232;10.110;2024-02-21T06:56:36;3.35;;;1.83;;
79438;SDS011;68889;48.232;10.110;2024-02-21T06:59:03;3.50;;;2.10;;
79438;SDS011;68889;48.232;10.110;2024-02-21T07:03:55;2.72;;;1.70;;
79438;SDS011;68889;48.232;10.110;2024-02-21T07:06:21;3.83;;;1.60;;
79438;SDS011;68889;48.232;10.110;2024-02-21T07:08:47;3.05;;;1.38;;
79438;SDS011;68889;48.232;10.110;2024-02-21T07:11:12;2.58;;;1.70;;
79438;SDS011;68889;48.232;10.110;2024-02-21T07:13:38;3.42;;;1.63;;
79438;SDS011;68889;48.232;10.110;2024-02-21T07:16:04;2.95;;;1.63;;
79438;SDS011;68889;48.232;10.110;2024-02-21T07:18:30;3.35;;;1.90;;
79438;SDS011;68889;48.232;10.110;2024-02-21T07:20:55;3.83;;;2.00;;
79438;SDS011;68889;48.232;10.110;2024-02-21T07:23:22;3.92;;;1.63;;
79438;SDS011;68889;48.232;10.110;2024-02-21T07:25:47;5.13;;;2.45;;
79438;SDS011;68889;48.232;10.110;2024-02-21T07:28:13;2.42;;;1.60;;
79438;SDS011;68889;48.232;10.110;2024-02-21T07:30:41;2.50;;;1.58;;
79438;SDS011;68889;48.232;10.110;2024-02-21T07:33:07;3.22;;;1.58;;
79438;SDS011;68889;48.232;10.110;2024-02-21T07:35:32;3.13;;;1.98;;
79438;SDS011;68889;48.232;10.110;2024-02-21T07:37:58;3.47;;;1.90;;
79438;SDS011;68889;48.232;10.110;2024-02-21T07:40:24;3.72;;;1.90;;
79438;SDS011;68889;48.232;10.110;2024-02-21T07:42:49;1.80;;;1.50;;
79438;SDS011;68889;48.232;10.110;2024-02-21T07:45:15;3.42;;;1.98;;
79438;SDS011;68889;48.232;10.110;2024-02-21T07:47:41;3.25;;;2.17;;
79438;SDS011;68889;48.232;10.110;2024-02-21T07:50:07;4.13;;;2.78;;
79438;SDS011;68889;48.232;10.110;2024-02-21T07:52:33;5.10;;;2.92;;
79438;SDS011;68889;48.232;10.110;2024-02-21T07:54:58;5.68;;;3.28;;
79438;SDS011;68889;48.232;10.110;2024-02-21T07:57:24;4.35;;;3.10;;
79438;SDS011;68889;48.232;10.110;2024-02-21T07:59:49;3.03;;;2.15;;
79438;SDS011;68889;48.232;10.110;2024-02-21T08:02:15;4.18;;;2.35;;
79438;SDS011;68889;48.232;10.110;2024-02-21T08:04:41;5.43;;;1.88;;
79438;SDS011;68889;48.232;10.110;2024-02-21T08:07:07;4.85;;;2.15;;
79438;SDS011;68889;48.232;10.110;2024-02-21T08:09:34;3.50;;;2.20;;
79438;SDS011;68889;48.232;10.110;2024-02-21T08:12:01;4.25;;;1.80;;
79438;SDS011;68889;48.232;10.110;2024-02-21T08:14:28;2.90;;;1.85;;
79438;SDS011;68889;48.232;10.110;2024-02-21T08:16:53;2.47;;;1.58;;
79438;SDS011;68889;48.232;10.110;2024-02-21T08:19:20;3.30;;;1.73;;
79438;SDS011;68889;48.232;10.110;2024-02-21T08:21:46;2.85;;;1.27;;
79438;SDS011;68889;48.232;10.110;2024-02-21T08:24:12;2.97;;;1.40;;
79438;SDS011;68889;48.232;10.110;2024-02-21T08:26:43;2.95;;;1.65;;
79438;SDS011;68889;48.232;10.110;2024-02-21T08:29:12;2.80;;;1.60;;
79438;SDS011;68889;48.232;10.110;2024-02-21T08:31:37;3.83;;;1.40;;
79438;SDS011;68889;48.232;10.110;2024-02-21T08:34:03;3.60;;;2.22;;
79438;SDS011;68889;48.232;10.110;2024-02-21T08:38:58;3.45;;;1.70;;
79438;SDS011;68889;48.232;10.110;2024-02-21T08:41:24;2.38;;;1.60;;
79438;SDS011;68889;48.232;10.110;2024-02-21T08:43:51;3.58;;;1.58;;
79438;SDS011;68889;48.232;10.110;2024-02-21T08:46:19;3.17;;;1.67;;
79438;SDS011;68889;48.232;10.110;2024-02-21T08:48:46;5.70;;;1.92;;
79438;SDS011;68889;48.232;10.110;2024-02-21T08:51:12;3.70;;;1.98;;
79438;SDS011;68889;48.232;10.110;2024-02-21T08:53:39;3.42;;;1.40;;
79438;SDS011;68889;48.232;10.110;2024-02-21T08:56:05;4.40;;;1.50;;
79438;SDS011;68889;48.232;10.110;2024-02-21T08:58:32;3.60;;;1.60;;
79438;SDS011;68889;48.232;10.110;2024-02-21T09:00:58;4.00;;;1.80;;
79438;SDS011;68889;48.232;10.110;2024-02-21T09:03:24;3.17;;;1.65;;
79438;SDS011;68889;48.232;10.110;2024-02-21T09:05:51;3.60;;;1.30;;
79438;SDS011;68889;48.232;10.110;2024-02-21T09:08:16;3.15;;;1.52;;
79438;SDS011;68889;48.232;10.110;2024-02-21T09:10:45;2.90;;;1.30;;
79438;SDS011;68889;48.232;10.110;2024-02-21T09:13:11;3.65;;;1.25;;
79438;SDS011;68889;48.232;10.110;2024-02-21T09:15:36;3.72;;;1.40;;
79438;SDS011;68889;48.232;10.110;2024-02-21T09:18:02;3.15;;;1.33;;
79438;SDS011;68889;48.232;10.110;2024-02-21T09:20:29;3.13;;;1.33;;
79438;SDS011;68889;48.232;10.110;2024-02-21T09:22:54;2.50;;;0.93;;
79438;SDS011;68889;48.232;10.110;2024-02-21T09:25:21;2.78;;;1.10;;
79438;SDS011;68889;48.232;10.110;2024-02-21T09:27:47;2.50;;;1.00;;
79438;SDS011;68889;48.232;10.110;2024-02-21T09:30:12;2.15;;;1.00;;
79438;SDS011;68889;48.232;10.110;2024-02-21T09:32:38;3.05;;;0.95;;
79438;SDS011;68889;48.232;10.110;2024-02-21T09:35:04;2.83;;;1.30;;
79438;SDS011;68889;48.232;10.110;2024-02-21T09:37:33;2.28;;;1.00;;
79438;SDS011;68889;48.232;10.110;2024-02-21T09:39:59;1.50;;;1.00;;
79438;SDS011;68889;48.232;10.110;2024-02-21T09:42:30;3.13;;;1.15;;
79438;SDS011;68889;48.232;10.110;2024-02-21T09:47:54;2.67;;;1.00;;
79438;SDS011;68889;48.232;10.110;2024-02-21T09:50:34;2.88;;;1.20;;
79438;SDS011;68889;48.232;10.110;2024-02-21T09:53:01;4.25;;;1.30;;
79438;SDS011;68889;48.232;10.110;2024-02-21T09:55:28;2.67;;;1.23;;
79438;SDS011;68889;48.232;10.110;2024-02-21T09:57:57;2.45;;;1.20;;
79438;SDS011;68889;48.232;10.110;2024-02-21T10:00:24;2.88;;;1.35;;
79438;SDS011;68889;48.232;10.110;2024-02-21T10:02:50;1.88;;;1.20;;
79438;SDS011;68889;48.232;10.110;2024-02-21T10:05:16;3.10;;;1.40;;
79438;SDS011;68889;48.232;10.110;2024-02-21T10:07:43;2.80;;;1.23;;
79438;SDS011;68889;48.232;10.110;2024-02-21T10:10:09;1.92;;;1.20;;
79438;SDS011;68889;48.232;10.110;2024-02-21T10:12:35;2.72;;;1.27;;
79438;SDS011;68889;48.232;10.110;2024-02-21T10:15:04;3.40;;;1.40;;
79438;SDS011;68889;48.232;10.110;2024-02-21T10:17:36;2.80;;;1.10;;
79438;SDS011;68889;48.232;10.110;2024-02-21T10:20:08;3.80;;;1.35;;
79438;SDS011;68889;48.232;10.110;2024-02-21T10:22:35;3.90;;;1.55;;
79438;SDS011;68889;48.232;10.110;2024-02-21T10:25:34;2.22;;;1.10;;
79438;SDS011;68889;48.232;10.110;2024-02-21T10:27:54;6.70;;;1.30;;
79438;SDS011;68889;48.232;10.110;2024-02-21T10:30:21;2.45;;;1.08;;
79438;SDS011;68889;48.232;10.110;2024-02-21T10:32:51;2.15;;;1.02;;
79438;SDS011;68889;48.232;10.110;2024-02-21T10:35:30;5.85;;;1.27;;
79438;SDS011;68889;48.232;10.110;2024-02-21T10:37:59;2.78;;;1.00;;
79438;SDS011;68889;48.232;10.110;2024-02-21T10:40:27;1.50;;;1.00;;
79438;SDS011;68889;48.232;10.110;2024-02-21T10:42:57;3.13;;;1.20;;
79438;SDS011;68889;48.232;10.110;2024-02-21T10:45:29;3.33;;;1.20;;
79438;SDS011;68889;48.232;10.110;2024-02-21T10:48:20;2.58;;;1.27;;
79438;SDS011;68889;48.232;10.110;2024-02-21T10:50:57;2.33;;;1.38;;
79438;SDS011;68889;48.232;10.110;2024-02-21T10:53:35;2.85;;;1.30;;
79438;SDS011;68889;48.232;10.110;2024-02-21T10:58:45;1.65;;;1.00;;
79438;SDS011;68889;48.232;10.110;2024-02-21T11:01:12;2.15;;;1.13;;
79438;SDS011;68889;48.232;10.110;2024-02-21T11:03:41;1.50;;;1.00;;
79438;SDS011;68889;48.232;10.110;2024-02-21T11:06:12;2.55;;;1.10;;
79438;SDS011;68889;48.232;10.110;2024-02-21T11:08:41;1.95;;;1.00;;
79438;SDS011;68889;48.232;10.110;2024-02-21T11:11:07;2.00;;;0.98;;
79438;SDS011;68889;48.232;10.110;2024-02-21T11:13:36;2.75;;;0.80;;
79438;SDS011;68889;48.232;10.110;2024-02-21T11:16:08;3.42;;;0.90;;
79438;SDS011;68889;48.232;10.110;2024-02-21T11:18:38;2.40;;;1.20;;
79438;SDS011;68889;48.232;10.110;2024-02-21T11:21:03;1.88;;;0.80;;
79438;SDS011;68889;48.232;10.110;2024-02-21T11:23:30;1.98;;;0.90;;
79438;SDS011;68889;48.232;10.110;2024-02-21T11:26:18;2.05;;;0.70;;
79438;SDS011;68889;48.232;10.110;2024-02-21T11:28:55;1.73;;;0.73;;
79438;SDS011;68889;48.232;10.110;2024-02-21T11:31:22;2.30;;;0.85;;
79438;SDS011;68889;48.232;10.110;2024-02-21T11:33:48;1.75;;;0.88;;
79438;SDS011;68889;48.232;10.110;2024-02-21T11:36:26;1.83;;;0.93;;
79438;SDS011;68889;48.232;10.110;2024-02-21T11:38:53;4.43;;;1.35;;
79438;SDS011;68889;48.232;10.110;2024-02-21T11:41:19;1.13;;;0.60;;
79438;SDS011;68889;48.232;10.110;2024-02-21T11:43:48;2.20;;;0.93;;
79438;SDS011;68889;48.232;10.110;2024-02-21T11:46:15;1.52;;;0.90;;
79438;SDS011;68889;48.232;10.110;2024-02-21T11:48:41;1.52;;;0.90;;
79438;SDS011;68889;48.232;10.110;2024-02-21T11:51:09;3.33;;;1.13;;
79438;SDS011;68889;48.232;10.110;2024-02-21T11:53:36;1.52;;;0.90;;
79438;SDS011;68889;48.232;10.110;2024-02-21T11:56:02;3.75;;;0.90;;
79438;SDS011;68889;48.232;10.110;2024-02-21T11:58:27;1.65;;;0.80;;
79438;SDS011;68889;48.232;10.110;2024-02-21T12:00:54;2.28;;;1.00;;
79438;SDS011;68889;48.232;10.110;2024-02-21T12:03:20;1.70;;;0.93;;
79438;SDS011;68889;48.232;10.110;2024-02-21T12:05:46;1.42;;;0.80;;
79438;SDS011;68889;48.232;10.110;2024-02-21T12:08:12;1.00;;;0.60;;
79438;SDS011;68889;48.232;10.110;2024-02-21T12:10:37;1.42;;;0.80;;
79438;SDS011;68889;48.232;10.110;2024-02-21T12:13:08;1.48;;;0.70;;
79438;SDS011;68889;48.232;10.110;2024-02-21T12:15:34;1.80;;;0.68;;
79438;SDS011;68889;48.232;10.110;2024-02-21T12:18:00;1.20;;;0.70;;
79438;SDS011;68889;48.232;10.110;2024-02-21T12:20:26;1.50;;;0.70;;
79438;SDS011;68889;48.232;10.110;2024-02-21T12:22:52;1.10;;;0.60;;
79438;SDS011;68889;48.232;10.110;2024-02-21T12:25:19;1.63;;;0.88;;
79438;SDS011;68889;48.232;10.110;2024-02-21T12:27:51;2.15;;;0.70;;
79438;SDS011;68889;48.232;10.110;2024-02-21T12:30:17;1.58;;;0.60;;
79438;SDS011;68889;48.232;10.110;2024-02-21T12:32:44;1.13;;;0.73;;
79438;SDS011;68889;48.232;10.110;2024-02-21T12:35:13;3.63;;;0.70;;
79438;SDS011;68889;48.232;10.110;2024-02-21T12:37:39;1.20;;;0.63;;
79438;SDS011;68889;48.232;10.110;2024-02-21T12:40:05;1.50;;;0.70;;
79438;SDS011;68889;48.232;10.110;2024-02-21T12:42:32;0.98;;;0.60;;
79438;SDS011;68889;48.232;10.110;2024-02-21T12:44:58;1.60;;;0.80;;
79438;SDS011;68889;48.232;10.110;2024-02-21T12:47:24;1.98;;;0.90;;
79438;SDS011;68889;48.232;10.110;2024-02-21T12:49:52;2.28;;;0.95;;
79438;SDS011;68889;48.232;10.110;2024-02-21T12:54:43;2.35;;;0.70;;
79438;SDS011;68889;48.232;10.110;2024-02-21T12:57:09;1.48;;;0.70;;
79438;SDS011;68889;48.232;10.110;2024-02-21T12:59:35;1.60;;;0.90;;
79438;SDS011;68889;48.232;10.110;2024-02-21T13:02:00;1.00;;;0.73;;
79438;SDS011;68889;48.232;10.110;2024-02-21T13:04:26;1.10;;;0.70;;
79438;SDS011;68889;48.232;10.110;2024-02-21T13:06:52;1.92;;;0.82;;
79438;SDS011;68889;48.232;10.110;2024-02-21T13:09:17;1.42;;;0.60;;
79438;SDS011;68889;48.232;10.110;2024-02-21T13:11:43;1.48;;;0.80;;
79438;SDS011;68889;48.232;10.110;2024-02-21T13:14:11;1.60;;;0.75;;
79438;SDS011;68889;48.232;10.110;2024-02-21T13:16:36;1.25;;;0.77;;
79438;SDS011;68889;48.232;10.110;2024-02-21T13:19:04;2.22;;;0.65;;
79438;SDS011;68889;48.232;10.110;2024-02-21T13:21:31;1.23;;;0.73;;
79438;SDS011;68889;48.232;10.110;2024-02-21T13:23:56;1.50;;;0.60;;
79438;SDS011;68889;48.232;10.110;2024-02-21T13:26:23;2.10;;;0.80;;
79438;SDS011;68889;48.232;10.110;2024-02-21T13:28:49;1.10;;;0.60;;
79438;SDS011;68889;48.232;10.110;2024-02-21T13:31:15;1.58;;;0.70;;
79438;SDS011;68889;48.232;10.110;2024-02-21T13:33:41;0.98;;;0.57;;
79438;SDS011;68889;48.232;10.110;2024-02-21T13:36:09;2.20;;;0.70;;
79438;SDS011;68889;48.232;10.110;2024-02-21T13:38:35;1.58;;;0.65;;
79438;SDS011;68889;48.232;10.110;2024-02-21T13:41:01;1.30;;;0.70;;
79438;SDS011;68889;48.232;10.110;2024-02-21T13:43:27;1.33;;;0.75;;
79438;SDS011;68889;48.232;10.110;2024-02-21T13:45:56;1.13;;;0.63;;
79438;SDS011;68889;48.232;10.110;2024-02-21T13:48:23;1.00;;;0.60;;
79438;SDS011;68889;48.232;10.110;2024-02-21T13:50:49;1.73;;;0.77;;
79438;SDS011;68889;48.232;10.110;2024-02-21T13:53:15;1.45;;;0.60;;
79438;SDS011;68889;48.232;10.110;2024-02-21T13:55:46;1.13;;;0.60;;
79438;SDS011;68889;48.232;10.110;2024-02-21T13:58:15;1.15;;;0.73;;
79438;SDS011;68889;48.232;10.110;2024-02-21T14:00:41;1.60;;;0.70;;
79438;SDS011;68889;48.232;10.110;2024-02-21T14:03:07;2.03;;;0.90;;
79438;SDS011;68889;48.232;10.110;2024-02-21T14:08:02;1.67;;;0.80;;
79438;SDS011;68889;48.232;10.110;2024-02-21T14:10:30;2.78;;;1.00;;
79438;SDS011;68889;48.232;10.110;2024-02-21T14:12:57;1.42;;;0.70;;
79438;SDS011;68889;48.232;10.110;2024-02-21T14:15:22;1.20;;;0.80;;
79438;SDS011;68889;48.232;10.110;2024-02-21T14:17:50;1.90;;;0.88;;
79438;SDS011;68889;48.232;10.110;2024-02-21T14:20:15;2.85;;;1.25;;
79438;SDS011;68889;48.232;10.110;2024-02-21T14:22:41;1.92;;;1.00;;
79438;SDS011;68889;48.232;10.110;2024-02-21T14:25:07;1.45;;;0.80;;
79438;SDS011;68889;48.232;10.110;2024-02-21T14:30:02;2.45;;;0.90;;
79438;SDS011;68889;48.232;10.110;2024-02-21T14:32:28;1.50;;;0.90;;
79438;SDS011;68889;48.232;10.110;2024-02-21T14:34:54;2.03;;;1.00;;
79438;SDS011;68889;48.232;10.110;2024-02-21T14:37:19;1.70;;;0.90;;
79438;SDS011;68889;48.232;10.110;2024-02-21T14:39:46;1.67;;;1.00;;
79438;SDS011;68889;48.232;10.110;2024-02-21T14:42:12;1.70;;;1.10;;
79438;SDS011;68889;48.232;10.110;2024-02-21T14:44:38;2.58;;;1.05;;
79438;SDS011;68889;48.232;10.110;2024-02-21T14:47:03;1.83;;;0.90;;
79438;SDS011;68889;48.232;10.110;2024-02-21T14:49:30;1.83;;;1.00;;
79438;SDS011;68889;48.232;10.110;2024-02-21T14:51:55;1.58;;;0.98;;
79438;SDS011;68889;48.232;10.110;2024-02-21T14:54:21;2.58;;;1.10;;
79438;SDS011;68889;48.232;10.110;2024-02-21T14:56:47;3.17;;;1.48;;
79438;SDS011;68889;48.232;10.110;2024-02-21T14:59:14;2.25;;;1.40;;
79438;SDS011;68889;48.232;10.110;2024-02-21T15:01:40;1.70;;;1.13;;
79438;SDS011;68889;48.232;10.110;2024-02-21T15:04:06;2.40;;;1.20;;
79438;SDS011;68889;48.232;10.110;2024-02-21T15:06:32;2.10;;;1.27;;